TAF

Letisková predpoveď TAF

Informácie o správe TAF

25.05.2016 - 23:00 UTC (Včera)

TAF LZIB 252300Z 2600/2624 31010KT CAVOK
    BECMG 2608/2610 9999 SCT035
    TEMPO 2611/2617 29015KT -SHRA SCT040 FEW050CB
    BECMG 2618/2620 CAVOK=
TAF LZKZ 252300Z 2600/2624 02005KT CAVOK
    BECMG 2607/2609 9999 FEW030 SCT090
    TEMPO 2609/2616 -SHRA SCT030TCU BKN060
    BECMG 2618/2620 CAVOK=
TAF LZTT 252300Z 2600/2624 27008KT 9999 FEW060
    PROB30 TEMPO 2600/2602 6000 -TSRA BKN035 SCT040CB
    BECMG 2606/2608 05010KT SCT040
    TEMPO 2610/2618 VRB20KT TSRA BKN030 SCT040CB=

25.05.2016 - 20:00 UTC (Včera)

TAF LZSL 252000Z 2521/2606 02004KT CAVOK
    PROB30 TEMPO 2602/2606 4000 BR BKN008=
TAF LZZI 252000Z 2521/2606 34004KT CAVOK
    PROB30 TEMPO 2521/2523 -TSRA SCT050 SCT055CB
    BECMG 2600/2602 5000 BR SCT005
    PROB30 TEMPO 2602/2606 0600 FG BKN004=

skok na menu ↑


skok na začiatok stránky ↑